sensor_id;sensor_type;location;lat;lon;timestamp;pressure;altitude;pressure_sealevel;temperature;humidity
11621;BME280;5866;49.094;11.900;2023-02-03T00:00:55;97131.13;;;4.23;100.00
11621;BME280;5866;49.094;11.900;2023-02-03T00:03:22;97121.63;;;4.08;100.00
11621;BME280;5866;49.094;11.900;2023-02-03T00:05:50;97124.47;;;4.17;100.00
11621;BME280;5866;49.094;11.900;2023-02-03T00:08:19;97127.22;;;4.16;100.00
11621;BME280;5866;49.094;11.900;2023-02-03T00:10:46;97122.31;;;4.24;100.00
11621;BME280;5866;49.094;11.900;2023-02-03T00:13:14;97123.72;;;4.02;100.00
11621;BME280;5866;49.094;11.900;2023-02-03T00:15:42;97120.69;;;4.09;100.00
11621;BME280;5866;49.094;11.900;2023-02-03T00:18:09;97136.69;;;4.18;100.00
11621;BME280;5866;49.094;11.900;2023-02-03T00:20:37;97130.72;;;4.29;100.00
11621;BME280;5866;49.094;11.900;2023-02-03T00:23:05;97126.28;;;4.17;100.00
11621;BME280;5866;49.094;11.900;2023-02-03T00:25:34;97130.91;;;4.26;100.00
11621;BME280;5866;49.094;11.900;2023-02-03T00:28:02;97137.66;;;4.30;100.00
11621;BME280;5866;49.094;11.900;2023-02-03T00:30:29;97124.38;;;4.06;100.00
11621;BME280;5866;49.094;11.900;2023-02-03T00:32:57;97123.59;;;4.31;100.00
11621;BME280;5866;49.094;11.900;2023-02-03T00:35:25;97120.81;;;4.20;100.00
11621;BME280;5866;49.094;11.900;2023-02-03T00:37:54;97133.81;;;4.09;100.00
11621;BME280;5866;49.094;11.900;2023-02-03T00:40:24;97120.16;;;4.03;100.00
11621;BME280;5866;49.094;11.900;2023-02-03T00:42:53;97122.63;;;3.92;100.00
11621;BME280;5866;49.094;11.900;2023-02-03T00:45:22;97109.16;;;3.84;100.00
11621;BME280;5866;49.094;11.900;2023-02-03T00:47:49;97121.59;;;3.95;100.00
11621;BME280;5866;49.094;11.900;2023-02-03T00:50:17;97123.19;;;3.97;100.00
11621;BME280;5866;49.094;11.900;2023-02-03T00:52:44;97122.44;;;3.95;100.00
11621;BME280;5866;49.094;11.900;2023-02-03T00:55:12;97122.63;;;3.92;100.00
11621;BME280;5866;49.094;11.900;2023-02-03T00:57:39;97118.22;;;3.93;100.00
11621;BME280;5866;49.094;11.900;2023-02-03T01:00:10;97121.81;;;4.04;100.00
11621;BME280;5866;49.094;11.900;2023-02-03T01:02:37;97123.22;;;3.83;100.00
11621;BME280;5866;49.094;11.900;2023-02-03T01:05:06;97123.66;;;3.90;100.00
11621;BME280;5866;49.094;11.900;2023-02-03T01:07:33;97123.59;;;3.91;100.00
11621;BME280;5866;49.094;11.900;2023-02-03T01:10:01;97121.34;;;3.85;100.00
11621;BME280;5866;49.094;11.900;2023-02-03T01:12:29;97124.50;;;3.90;100.00
11621;BME280;5866;49.094;11.900;2023-02-03T01:14:57;97126.22;;;3.91;100.00
11621;BME280;5866;49.094;11.900;2023-02-03T01:17:26;97120.16;;;4.03;100.00
11621;BME280;5866;49.094;11.900;2023-02-03T01:19:53;97131.06;;;3.97;100.00
11621;BME280;5866;49.094;11.900;2023-02-03T01:22:21;97126.84;;;3.95;100.00
11621;BME280;5866;49.094;11.900;2023-02-03T01:24:48;97120.84;;;3.93;100.00
11621;BME280;5866;49.094;11.900;2023-02-03T01:27:16;97121.50;;;3.96;100.00
11621;BME280;5866;49.094;11.900;2023-02-03T01:29:43;97116.56;;;4.04;100.00
11621;BME280;5866;49.094;11.900;2023-02-03T01:32:11;97116.06;;;3.99;100.00
11621;BME280;5866;49.094;11.900;2023-02-03T01:34:39;97121.09;;;4.02;100.00
11621;BME280;5866;49.094;11.900;2023-02-03T01:37:07;97110.66;;;3.88;100.00
11621;BME280;5866;49.094;11.900;2023-02-03T01:39:34;97123.66;;;3.90;100.00
11621;BME280;5866;49.094;11.900;2023-02-03T01:42:02;97119.84;;;3.81;100.00
11621;BME280;5866;49.094;11.900;2023-02-03T01:44:42;97113.13;;;3.77;100.00
11621;BME280;5866;49.094;11.900;2023-02-03T01:47:15;97113.00;;;3.66;100.00
11621;BME280;5866;49.094;11.900;2023-02-03T01:49:47;97108.22;;;3.85;100.00
11621;BME280;5866;49.094;11.900;2023-02-03T01:52:16;97107.00;;;3.91;100.00
11621;BME280;5866;49.094;11.900;2023-02-03T01:54:47;97105.28;;;4.17;100.00
11621;BME280;5866;49.094;11.900;2023-02-03T01:57:20;97101.25;;;4.11;100.00
11621;BME280;5866;49.094;11.900;2023-02-03T01:59:50;97102.31;;;4.09;100.00
11621;BME280;5866;49.094;11.900;2023-02-03T02:02:19;97096.69;;;4.15;100.00
11621;BME280;5866;49.094;11.900;2023-02-03T02:04:53;97102.34;;;3.82;100.00
11621;BME280;5866;49.094;11.900;2023-02-03T02:07:23;97100.50;;;3.70;100.00
11621;BME280;5866;49.094;11.900;2023-02-03T02:09:50;97097.81;;;3.84;100.00
11621;BME280;5866;49.094;11.900;2023-02-03T02:12:18;97087.66;;;3.92;100.00
11621;BME280;5866;49.094;11.900;2023-02-03T02:14:46;97085.69;;;3.95;100.00
11621;BME280;5866;49.094;11.900;2023-02-03T02:17:28;97076.44;;;3.90;100.00
11621;BME280;5866;49.094;11.900;2023-02-03T02:20:30;97067.22;;;3.97;100.00
11621;BME280;5866;49.094;11.900;2023-02-03T02:29:11;97043.97;;;3.78;100.00
11621;BME280;5866;49.094;11.900;2023-02-03T02:32:03;97043.69;;;3.83;100.00
11621;BME280;5866;49.094;11.900;2023-02-03T02:34:42;97047.66;;;3.88;100.00
11621;BME280;5866;49.094;11.900;2023-02-03T02:37:21;97035.00;;;4.08;100.00
11621;BME280;5866;49.094;11.900;2023-02-03T02:39:55;97018.06;;;3.86;100.00
11621;BME280;5866;49.094;11.900;2023-02-03T02:42:31;97031.50;;;3.94;100.00
11621;BME280;5866;49.094;11.900;2023-02-03T02:45:06;97031.09;;;4.00;100.00
11621;BME280;5866;49.094;11.900;2023-02-03T02:47:38;97028.25;;;3.91;100.00
11621;BME280;5866;49.094;11.900;2023-02-03T02:50:08;97036.16;;;4.03;100.00
11621;BME280;5866;49.094;11.900;2023-02-03T02:52:41;97035.31;;;4.03;100.00
11621;BME280;5866;49.094;11.900;2023-02-03T02:55:16;97046.06;;;4.25;100.00
11621;BME280;5866;49.094;11.900;2023-02-03T02:57:50;97035.94;;;4.07;100.00
11621;BME280;5866;49.094;11.900;2023-02-03T03:00:19;97028.41;;;4.15;100.00
11621;BME280;5866;49.094;11.900;2023-02-03T03:02:49;97037.09;;;4.15;100.00
11621;BME280;5866;49.094;11.900;2023-02-03T03:05:17;97047.53;;;4.17;100.00
11621;BME280;5866;49.094;11.900;2023-02-03T03:07:48;97047.53;;;4.17;100.00
11621;BME280;5866;49.094;11.900;2023-02-03T03:10:20;97040.16;;;4.09;100.00
11621;BME280;5866;49.094;11.900;2023-02-03T03:12:53;97045.94;;;4.14;100.00
11621;BME280;5866;49.094;11.900;2023-02-03T03:15:23;97057.47;;;4.12;100.00
11621;BME280;5866;49.094;11.900;2023-02-03T03:17:57;97035.22;;;4.17;100.00
11621;BME280;5866;49.094;11.900;2023-02-03T03:20:27;97023.66;;;4.20;100.00
11621;BME280;5866;49.094;11.900;2023-02-03T03:22:59;97019.88;;;4.11;100.00
11621;BME280;5866;49.094;11.900;2023-02-03T03:25:36;97012.88;;;4.24;100.00
11621;BME280;5866;49.094;11.900;2023-02-03T03:28:09;97018.13;;;4.37;100.00
11621;BME280;5866;49.094;11.900;2023-02-03T03:30:38;97039.22;;;4.23;100.00
11621;BME280;5866;49.094;11.900;2023-02-03T03:33:08;97047.31;;;4.20;100.00
11621;BME280;5866;49.094;11.900;2023-02-03T03:35:39;97047.75;;;4.26;100.00
11621;BME280;5866;49.094;11.900;2023-02-03T03:38:13;97046.69;;;4.29;100.00
11621;BME280;5866;49.094;11.900;2023-02-03T03:40:50;97054.56;;;4.29;100.00
11621;BME280;5866;49.094;11.900;2023-02-03T03:43:21;97045.00;;;4.28;100.00
11621;BME280;5866;49.094;11.900;2023-02-03T03:45:53;97056.56;;;4.25;100.00
11621;BME280;5866;49.094;11.900;2023-02-03T03:48:26;97062.34;;;4.30;100.00
11621;BME280;5866;49.094;11.900;2023-02-03T03:51:00;97050.16;;;4.29;100.00
11621;BME280;5866;49.094;11.900;2023-02-03T03:53:31;97029.47;;;4.37;100.00
11621;BME280;5866;49.094;11.900;2023-02-03T03:56:00;97049.03;;;4.46;100.00
11621;BME280;5866;49.094;11.900;2023-02-03T03:58:31;97025.25;;;4.47;100.00
11621;BME280;5866;49.094;11.900;2023-02-03T04:01:01;97025.69;;;4.54;100.00
11621;BME280;5866;49.094;11.900;2023-02-03T04:03:32;97036.50;;;4.37;100.00
11621;BME280;5866;49.094;11.900;2023-02-03T04:06:04;97067.72;;;4.41;100.00
11621;BME280;5866;49.094;11.900;2023-02-03T04:08:32;97086.19;;;4.27;100.00
11621;BME280;5866;49.094;11.900;2023-02-03T04:10:59;97084.31;;;4.29;100.00
11621;BME280;5866;49.094;11.900;2023-02-03T04:13:27;97073.69;;;4.43;100.00
11621;BME280;5866;49.094;11.900;2023-02-03T04:15:54;97071.94;;;4.44;100.00
11621;BME280;5866;49.094;11.900;2023-02-03T04:18:22;97084.09;;;4.45;100.00
11621;BME280;5866;49.094;11.900;2023-02-03T04:20:51;97091.03;;;4.46;100.00
11621;BME280;5866;49.094;11.900;2023-02-03T04:23:18;97072.44;;;4.49;100.00
11621;BME280;5866;49.094;11.900;2023-02-03T04:25:45;97062.88;;;4.48;100.00
11621;BME280;5866;49.094;11.900;2023-02-03T04:28:13;97050.91;;;4.44;100.00
11621;BME280;5866;49.094;11.900;2023-02-03T04:30:40;97049.63;;;4.37;100.00
11621;BME280;5866;49.094;11.900;2023-02-03T04:33:08;97062.22;;;4.44;100.00
11621;BME280;5866;49.094;11.900;2023-02-03T04:35:35;97062.25;;;4.57;100.00
11621;BME280;5866;49.094;11.900;2023-02-03T04:38:04;97061.41;;;4.44;100.00
11621;BME280;5866;49.094;11.900;2023-02-03T04:40:32;97055.09;;;4.34;100.00
11621;BME280;5866;49.094;11.900;2023-02-03T04:43:04;97065.06;;;4.29;100.00
11621;BME280;5866;49.094;11.900;2023-02-03T04:45:32;97050.38;;;4.26;100.00
11621;BME280;5866;49.094;11.900;2023-02-03T04:48:00;97029.47;;;4.37;100.00
11621;BME280;5866;49.094;11.900;2023-02-03T04:50:29;97031.06;;;4.27;100.00
11621;BME280;5866;49.094;11.900;2023-02-03T04:52:56;97030.41;;;4.36;100.00
11621;BME280;5866;49.094;11.900;2023-02-03T04:55:27;97025.56;;;4.43;100.00
11621;BME280;5866;49.094;11.900;2023-02-03T04:57:54;97023.56;;;4.34;100.00
11621;BME280;5866;49.094;11.900;2023-02-03T05:00:22;97012.88;;;4.37;100.00
11621;BME280;5866;49.094;11.900;2023-02-03T05:02:50;97011.16;;;4.36;100.00
11621;BME280;5866;49.094;11.900;2023-02-03T05:05:18;97025.69;;;4.41;100.00
11621;BME280;5866;49.094;11.900;2023-02-03T05:07:45;97022.53;;;4.49;100.00
11621;BME280;5866;49.094;11.900;2023-02-03T05:10:13;97011.09;;;4.37;100.00
11621;BME280;5866;49.094;11.900;2023-02-03T05:12:41;97018.97;;;4.50;100.00
11621;BME280;5866;49.094;11.900;2023-02-03T05:15:09;97025.25;;;4.47;100.00
11621;BME280;5866;49.094;11.900;2023-02-03T05:17:37;97010.75;;;4.67;100.00
11621;BME280;5866;49.094;11.900;2023-02-03T05:20:06;97025.88;;;4.51;100.00
11621;BME280;5866;49.094;11.900;2023-02-03T05:22:33;97018.75;;;4.40;100.00
11621;BME280;5866;49.094;11.900;2023-02-03T05:25:02;97032.53;;;4.44;100.00
11621;BME280;5866;49.094;11.900;2023-02-03T05:27:30;97048.16;;;4.58;100.00
11621;BME280;5866;49.094;11.900;2023-02-03T05:29:58;97031.25;;;4.74;100.00
11621;BME280;5866;49.094;11.900;2023-02-03T05:32:26;97018.13;;;4.62;100.00
11621;BME280;5866;49.094;11.900;2023-02-03T05:34:53;97016.63;;;4.70;100.00
11621;BME280;5866;49.094;11.900;2023-02-03T05:37:21;97031.06;;;4.40;100.00
11621;BME280;5866;49.094;11.900;2023-02-03T05:39:48;97025.03;;;4.38;100.00
11621;BME280;5866;49.094;11.900;2023-02-03T05:42:16;97016.97;;;4.41;100.00
11621;BME280;5866;49.094;11.900;2023-02-03T05:44:42;97028.75;;;4.35;100.00
11621;BME280;5866;49.094;11.900;2023-02-03T05:47:11;97043.34;;;4.39;100.00
11621;BME280;5866;49.094;11.900;2023-02-03T05:49:39;97045.53;;;4.33;100.00
11621;BME280;5866;49.094;11.900;2023-02-03T05:52:06;97038.16;;;4.38;100.00
11621;BME280;5866;49.094;11.900;2023-02-03T05:54:34;97031.97;;;4.39;100.00
11621;BME280;5866;49.094;11.900;2023-02-03T05:57:01;97032.19;;;4.36;100.00
11621;BME280;5866;49.094;11.900;2023-02-03T05:59:29;97030.81;;;4.43;100.00
11621;BME280;5866;49.094;11.900;2023-02-03T06:01:56;97031.25;;;4.37;100.00
11621;BME280;5866;49.094;11.900;2023-02-03T06:04:25;97038.50;;;4.58;100.00
11621;BME280;5866;49.094;11.900;2023-02-03T06:06:52;97044.81;;;4.56;100.00
11621;BME280;5866;49.094;11.900;2023-02-03T06:09:20;97038.94;;;4.40;100.00
11621;BME280;5866;49.094;11.900;2023-02-03T06:11:47;97054.69;;;4.40;100.00
11621;BME280;5866;49.094;11.900;2023-02-03T06:14:15;97050.56;;;4.36;100.00
11621;BME280;5866;49.094;11.900;2023-02-03T06:16:42;97047.00;;;4.37;100.00
11621;BME280;5866;49.094;11.900;2023-02-03T06:19:10;97034.91;;;4.34;100.00
11621;BME280;5866;49.094;11.900;2023-02-03T06:21:42;97045.31;;;4.36;100.00
11621;BME280;5866;49.094;11.900;2023-02-03T06:24:10;97039.88;;;4.39;100.00
11621;BME280;5866;49.094;11.900;2023-02-03T06:26:37;97027.16;;;4.33;100.00
11621;BME280;5866;49.094;11.900;2023-02-03T06:29:05;97020.22;;;4.44;100.00
11621;BME280;5866;49.094;11.900;2023-02-03T06:31:32;96986.41;;;4.40;100.00
11621;BME280;5866;49.094;11.900;2023-02-03T06:34:00;96985.75;;;4.36;100.00
11621;BME280;5866;49.094;11.900;2023-02-03T06:36:27;96989.09;;;4.51;100.00
11621;BME280;5866;49.094;11.900;2023-02-03T06:38:57;96970.22;;;4.46;100.00
11621;BME280;5866;49.094;11.900;2023-02-03T06:41:24;96972.44;;;4.27;100.00
11621;BME280;5866;49.094;11.900;2023-02-03T06:43:55;96974.63;;;4.33;100.00
11621;BME280;5866;49.094;11.900;2023-02-03T06:46:23;96972.53;;;4.25;100.00
11621;BME280;5866;49.094;11.900;2023-02-03T06:48:53;96963.50;;;4.42;100.00
11621;BME280;5866;49.094;11.900;2023-02-03T06:51:20;96962.97;;;4.49;100.00
11621;BME280;5866;49.094;11.900;2023-02-03T06:53:50;96962.84;;;4.26;100.00
11621;BME280;5866;49.094;11.900;2023-02-03T06:56:19;96968.13;;;4.26;100.00
11621;BME280;5866;49.094;11.900;2023-02-03T06:58:46;96962.78;;;4.27;100.00
11621;BME280;5866;49.094;11.900;2023-02-03T07:01:13;96956.75;;;4.38;100.00
11621;BME280;5866;49.094;11.900;2023-02-03T07:03:41;96948.13;;;4.36;100.00
11621;BME280;5866;49.094;11.900;2023-02-03T07:06:09;96942.69;;;4.39;100.00
11621;BME280;5866;49.094;11.900;2023-02-03T07:08:36;96945.22;;;4.28;100.00
11621;BME280;5866;49.094;11.900;2023-02-03T07:11:04;96952.59;;;4.23;100.00
11621;BME280;5866;49.094;11.900;2023-02-03T07:13:33;96935.97;;;4.22;100.00
11621;BME280;5866;49.094;11.900;2023-02-03T07:16:00;96983.00;;;4.38;100.00
11621;BME280;5866;49.094;11.900;2023-02-03T07:18:28;96971.88;;;4.59;100.00
11621;BME280;5866;49.094;11.900;2023-02-03T07:21:13;96976.41;;;4.45;100.00
11621;BME280;5866;49.094;11.900;2023-02-03T07:23:41;96982.19;;;4.37;100.00
11621;BME280;5866;49.094;11.900;2023-02-03T07:26:09;96980.81;;;4.44;100.00
11621;BME280;5866;49.094;11.900;2023-02-03T07:28:38;96977.75;;;4.38;100.00
11621;BME280;5866;49.094;11.900;2023-02-03T07:31:06;96971.47;;;4.40;100.00
11621;BME280;5866;49.094;11.900;2023-02-03T07:33:36;96981.47;;;4.48;100.00
11621;BME280;5866;49.094;11.900;2023-02-03T07:36:05;96977.75;;;4.63;100.00
11621;BME280;5866;49.094;11.900;2023-02-03T07:38:33;96975.63;;;4.68;100.00
11621;BME280;5866;49.094;11.900;2023-02-03T07:41:00;96981.50;;;4.84;100.00
11621;BME280;5866;49.094;11.900;2023-02-03T07:43:28;96984.47;;;4.79;100.00
11621;BME280;5866;49.094;11.900;2023-02-03T07:45:57;96980.69;;;4.71;100.00
11621;BME280;5866;49.094;11.900;2023-02-03T07:48:24;96983.09;;;4.61;100.00
11621;BME280;5866;49.094;11.900;2023-02-03T07:50:52;96975.13;;;4.63;100.00
11621;BME280;5866;49.094;11.900;2023-02-03T07:53:19;96972.25;;;4.78;100.00
11621;BME280;5866;49.094;11.900;2023-02-03T07:55:47;96989.03;;;4.52;100.00
11621;BME280;5866;49.094;11.900;2023-02-03T07:58:14;96980.50;;;4.49;100.00
11621;BME280;5866;49.094;11.900;2023-02-03T08:00:42;96973.00;;;4.68;100.00
11621;BME280;5866;49.094;11.900;2023-02-03T08:03:11;96955.50;;;4.56;100.00
11621;BME280;5866;49.094;11.900;2023-02-03T08:05:38;96978.41;;;4.54;100.00
11621;BME280;5866;49.094;11.900;2023-02-03T08:08:06;97002.97;;;4.53;100.00
11621;BME280;5866;49.094;11.900;2023-02-03T08:10:33;97009.94;;;4.54;100.00
11621;BME280;5866;49.094;11.900;2023-02-03T08:13:01;96974.81;;;4.55;100.00
11621;BME280;5866;49.094;11.900;2023-02-03T08:15:28;96975.03;;;4.64;100.00
11621;BME280;5866;49.094;11.900;2023-02-03T08:17:56;96972.47;;;4.63;100.00
11621;BME280;5866;49.094;11.900;2023-02-03T08:20:24;96974.72;;;4.69;100.00
11621;BME280;5866;49.094;11.900;2023-02-03T08:22:52;96966.59;;;4.72;100.00
11621;BME280;5866;49.094;11.900;2023-02-03T08:25:20;96981.69;;;4.94;100.00
11621;BME280;5866;49.094;11.900;2023-02-03T08:27:48;96967.09;;;4.90;100.00
11621;BME280;5866;49.094;11.900;2023-02-03T08:30:15;96965.50;;;4.87;100.00
11621;BME280;5866;49.094;11.900;2023-02-03T08:32:43;96953.50;;;4.96;100.00
11621;BME280;5866;49.094;11.900;2023-02-03T08:35:10;96948.78;;;4.88;100.00
11621;BME280;5866;49.094;11.900;2023-02-03T08:37:39;96933.88;;;4.76;100.00
11621;BME280;5866;49.094;11.900;2023-02-03T08:40:08;96967.19;;;4.75;100.00
11621;BME280;5866;49.094;11.900;2023-02-03T08:42:35;96959.22;;;4.77;100.00
11621;BME280;5866;49.094;11.900;2023-02-03T08:45:04;96958.06;;;4.81;100.00
11621;BME280;5866;49.094;11.900;2023-02-03T08:47:32;96941.28;;;4.71;100.00
11621;BME280;5866;49.094;11.900;2023-02-03T08:50:02;96957.00;;;4.83;100.00
11621;BME280;5866;49.094;11.900;2023-02-03T08:52:30;96962.34;;;4.82;100.00
11621;BME280;5866;49.094;11.900;2023-02-03T08:54:59;96948.03;;;4.86;100.00
11621;BME280;5866;49.094;11.900;2023-02-03T08:57:26;96959.56;;;4.60;100.00
11621;BME280;5866;49.094;11.900;2023-02-03T08:59:54;96969.13;;;4.61;100.00
11621;BME280;5866;49.094;11.900;2023-02-03T09:02:21;96963.56;;;4.65;100.00
11621;BME280;5866;49.094;11.900;2023-02-03T09:04:49;96949.59;;;4.65;100.00
11621;BME280;5866;49.094;11.900;2023-02-03T09:07:17;96957.44;;;4.77;100.00
11621;BME280;5866;49.094;11.900;2023-02-03T09:09:44;96946.72;;;4.80;100.00
11621;BME280;5866;49.094;11.900;2023-02-03T09:12:13;96950.63;;;4.75;100.00
11621;BME280;5866;49.094;11.900;2023-02-03T09:14:41;96936.00;;;4.83;100.00
11621;BME280;5866;49.094;11.900;2023-02-03T09:17:09;96942.25;;;4.94;100.00
11621;BME280;5866;49.094;11.900;2023-02-03T09:19:37;96949.09;;;4.96;100.00
11621;BME280;5866;49.094;11.900;2023-02-03T09:22:04;96939.44;;;4.84;100.00
11621;BME280;5866;49.094;11.900;2023-02-03T09:24:32;96949.53;;;4.90;100.00
11621;BME280;5866;49.094;11.900;2023-02-03T09:27:01;96943.03;;;4.83;100.00
11621;BME280;5866;49.094;11.900;2023-02-03T09:29:30;96935.63;;;4.88;100.00
11621;BME280;5866;49.094;11.900;2023-02-03T09:31:58;96942.63;;;4.76;100.00
11621;BME280;5866;49.094;11.900;2023-02-03T09:34:26;96932.72;;;4.80;100.00
11621;BME280;5866;49.094;11.900;2023-02-03T09:36:53;96944.28;;;4.90;100.00
11621;BME280;5866;49.094;11.900;2023-02-03T09:39:21;96952.16;;;4.90;100.00
11621;BME280;5866;49.094;11.900;2023-02-03T09:42:23;96961.44;;;4.83;100.00
11621;BME280;5866;49.094;11.900;2023-02-03T09:45:03;96965.50;;;4.87;100.00
11621;BME280;5866;49.094;11.900;2023-02-03T09:47:36;96952.25;;;4.89;100.00
11621;BME280;5866;49.094;11.900;2023-02-03T09:50:11;96950.09;;;5.06;100.00
11621;BME280;5866;49.094;11.900;2023-02-03T09:52:41;96948.41;;;5.05;100.00
11621;BME280;5866;49.094;11.900;2023-02-03T09:55:20;96954.13;;;4.99;100.00
11621;BME280;5866;49.094;11.900;2023-02-03T09:57:53;96952.41;;;5.11;100.00
11621;BME280;5866;49.094;11.900;2023-02-03T10:00:27;96949.66;;;5.12;100.00
11621;BME280;5866;49.094;11.900;2023-02-03T10:02:59;96947.47;;;5.06;100.00
11621;BME280;5866;49.094;11.900;2023-02-03T10:05:44;96957.81;;;5.20;100.00
11621;BME280;5866;49.094;11.900;2023-02-03T10:08:23;96943.09;;;5.18;100.00
11621;BME280;5866;49.094;11.900;2023-02-03T10:10:57;96951.22;;;5.38;100.00
11621;BME280;5866;49.094;11.900;2023-02-03T10:13:42;96939.41;;;5.20;100.00
11621;BME280;5866;49.094;11.900;2023-02-03T10:16:23;96941.41;;;5.40;100.00
11621;BME280;5866;49.094;11.900;2023-02-03T10:18:59;96931.59;;;5.31;100.00
11621;BME280;5866;49.094;11.900;2023-02-03T10:21:34;96938.84;;;5.28;100.00
11621;BME280;5866;49.094;11.900;2023-02-03T10:24:08;96938.84;;;5.28;100.00
11621;BME280;5866;49.094;11.900;2023-02-03T10:26:37;96940.09;;;5.35;100.00
11621;BME280;5866;49.094;11.900;2023-02-03T10:29:16;96948.69;;;5.37;100.00
11621;BME280;5866;49.094;11.900;2023-02-03T10:31:46;96957.94;;;5.42;100.00
11621;BME280;5866;49.094;11.900;2023-02-03T10:34:16;96949.75;;;5.34;100.00
11621;BME280;5866;49.094;11.900;2023-02-03T10:36:52;96953.56;;;5.30;100.00
11621;BME280;5866;49.094;11.900;2023-02-03T10:39:28;96946.41;;;5.32;100.00
11621;BME280;5866;49.094;11.900;2023-02-03T10:41:57;96928.56;;;5.59;100.00
11621;BME280;5866;49.094;11.900;2023-02-03T10:44:30;96912.78;;;5.59;100.00
11621;BME280;5866;49.094;11.900;2023-02-03T10:47:14;96913.66;;;5.71;100.00
11621;BME280;5866;49.094;11.900;2023-02-03T10:49:44;96918.63;;;5.87;100.00
11621;BME280;5866;49.094;11.900;2023-02-03T10:52:24;96902.25;;;5.59;100.00
11621;BME280;5866;49.094;11.900;2023-02-03T10:54:53;96910.13;;;5.48;100.00
11621;BME280;5866;49.094;11.900;2023-02-03T10:57:21;96916.59;;;5.55;100.00
11621;BME280;5866;49.094;11.900;2023-02-03T10:59:48;96905.09;;;5.45;100.00
11621;BME280;5866;49.094;11.900;2023-02-03T11:02:22;96903.44;;;5.44;100.00
11621;BME280;5866;49.094;11.900;2023-02-03T11:05:10;96895.50;;;5.33;100.00
11621;BME280;5866;49.094;11.900;2023-02-03T11:07:37;96894.81;;;5.42;100.00
11621;BME280;5866;49.094;11.900;2023-02-03T11:10:28;96890.63;;;5.40;100.00
11621;BME280;5866;49.094;11.900;2023-02-03T11:13:15;96878.31;;;5.51;100.00
11621;BME280;5866;49.094;11.900;2023-02-03T11:15:50;96866.84;;;5.52;100.00
11621;BME280;5866;49.094;11.900;2023-02-03T11:18:32;96846.19;;;5.59;100.00
11621;BME280;5866;49.094;11.900;2023-02-03T11:21:06;96865.22;;;5.74;100.00
11621;BME280;5866;49.094;11.900;2023-02-03T11:23:35;96866.69;;;5.89;100.00
11621;BME280;5866;49.094;11.900;2023-02-03T11:26:11;96864.50;;;5.72;100.00
11621;BME280;5866;49.094;11.900;2023-02-03T11:28:42;96848.19;;;5.55;100.00
11621;BME280;5866;49.094;11.900;2023-02-03T11:31:16;96849.66;;;5.71;100.00
11621;BME280;5866;49.094;11.900;2023-02-03T11:33:53;96842.59;;;5.71;100.00
11621;BME280;5866;49.094;11.900;2023-02-03T11:36:25;96839.84;;;5.73;100.00
11621;BME280;5866;49.094;11.900;2023-02-03T11:39:08;96826.91;;;5.58;100.00
11621;BME280;5866;49.094;11.900;2023-02-03T11:41:37;96828.66;;;5.47;100.00
11621;BME280;5866;49.094;11.900;2023-02-03T11:44:14;96810.53;;;5.55;100.00
11621;BME280;5866;49.094;11.900;2023-02-03T11:46:43;96795.81;;;5.52;100.00
11621;BME280;5866;49.094;11.900;2023-02-03T11:49:32;96800.56;;;5.47;100.00
11621;BME280;5866;49.094;11.900;2023-02-03T11:52:29;96796.13;;;5.37;100.00
11621;BME280;5866;49.094;11.900;2023-02-03T11:55:04;96807.97;;;5.31;100.00
11621;BME280;5866;49.094;11.900;2023-02-03T11:57:40;96795.75;;;5.30;100.00
11621;BME280;5866;49.094;11.900;2023-02-03T12:00:20;96754.13;;;5.24;100.00
11621;BME280;5866;49.094;11.900;2023-02-03T12:03:24;96788.38;;;5.35;100.00
11621;BME280;5866;49.094;11.900;2023-02-03T12:06:04;96798.81;;;5.59;100.00
11621;BME280;5866;49.094;11.900;2023-02-03T12:08:44;96784.66;;;5.49;100.00
11621;BME280;5866;49.094;11.900;2023-02-03T12:11:24;96776.06;;;5.47;100.00
11621;BME280;5866;49.094;11.900;2023-02-03T12:17:01;96776.00;;;5.14;100.00
11621;BME280;5866;49.094;11.900;2023-02-03T12:19:40;96779.16;;;5.30;100.00
11621;BME280;5866;49.094;11.900;2023-02-03T12:22:18;96761.78;;;5.16;100.00
11621;BME280;5866;49.094;11.900;2023-02-03T12:24:58;96778.28;;;5.18;100.00
11621;BME280;5866;49.094;11.900;2023-02-03T12:27:42;96776.00;;;5.14;100.00
11621;BME280;5866;49.094;11.900;2023-02-03T12:30:18;96789.19;;;5.25;100.00
11621;BME280;5866;49.094;11.900;2023-02-03T12:32:51;96788.59;;;5.32;100.00
11621;BME280;5866;49.094;11.900;2023-02-03T12:35:24;96791.47;;;5.40;100.00
11621;BME280;5866;49.094;11.900;2023-02-03T12:37:57;96782.03;;;5.38;100.00
11621;BME280;5866;49.094;11.900;2023-02-03T12:40:33;96785.16;;;5.54;100.00
11621;BME280;5866;49.094;11.900;2023-02-03T12:43:16;96786.09;;;5.53;100.00
11621;BME280;5866;49.094;11.900;2023-02-03T12:45:50;96784.44;;;5.52;100.00
11621;BME280;5866;49.094;11.900;2023-02-03T12:48:21;96783.38;;;5.54;100.00
11621;BME280;5866;49.094;11.900;2023-02-03T12:50:52;96739.59;;;5.53;100.00
11621;BME280;5866;49.094;11.900;2023-02-03T12:53:26;96740.31;;;5.67;100.00
11621;BME280;5866;49.094;11.900;2023-02-03T12:55:58;96720.47;;;5.74;100.00
11621;BME280;5866;49.094;11.900;2023-02-03T12:58:30;96702.53;;;5.90;100.00
11621;BME280;5866;49.094;11.900;2023-02-03T13:01:04;96686.97;;;5.76;100.00
11621;BME280;5866;49.094;11.900;2023-02-03T13:03:36;96692.94;;;5.67;100.00
11621;BME280;5866;49.094;11.900;2023-02-03T13:06:12;96689.47;;;5.77;100.00
11621;BME280;5866;49.094;11.900;2023-02-03T13:08:46;96675.50;;;5.88;100.00
11621;BME280;5866;49.094;11.900;2023-02-03T13:11:21;96666.00;;;5.74;100.00
11621;BME280;5866;49.094;11.900;2023-02-03T13:13:53;96663.75;;;5.81;100.00
11621;BME280;5866;49.094;11.900;2023-02-03T13:16:25;96657.31;;;5.74;100.00
11621;BME280;5866;49.094;11.900;2023-02-03T13:18:58;96652.75;;;5.87;100.00
11621;BME280;5866;49.094;11.900;2023-02-03T13:21:27;96646.88;;;5.72;100.00
11621;BME280;5866;49.094;11.900;2023-02-03T13:23:56;96652.03;;;5.74;100.00
11621;BME280;5866;49.094;11.900;2023-02-03T13:26:43;96653.22;;;5.81;100.00
11621;BME280;5866;49.094;11.900;2023-02-03T13:29:27;96623.31;;;5.82;100.00